sensor_id;sensor_type;location;lat;lon;timestamp;temperature;humidity
3564;DHT22;1796;52.388;13.096;2023-11-19T00:01:28;3.70;99.90
3564;DHT22;1796;52.388;13.096;2023-11-19T00:03:55;3.70;99.90
3564;DHT22;1796;52.388;13.096;2023-11-19T00:06:22;3.80;99.90
3564;DHT22;1796;52.388;13.096;2023-11-19T00:08:49;3.80;99.90
3564;DHT22;1796;52.388;13.096;2023-11-19T00:11:16;3.90;99.90
3564;DHT22;1796;52.388;13.096;2023-11-19T00:13:43;3.90;99.90
3564;DHT22;1796;52.388;13.096;2023-11-19T00:16:10;3.90;99.90
3564;DHT22;1796;52.388;13.096;2023-11-19T00:18:39;3.90;99.90
3564;DHT22;1796;52.388;13.096;2023-11-19T00:21:06;4.00;99.90
3564;DHT22;1796;52.388;13.096;2023-11-19T00:23:33;4.10;99.90
3564;DHT22;1796;52.388;13.096;2023-11-19T00:26:00;4.00;99.90
3564;DHT22;1796;52.388;13.096;2023-11-19T00:28:27;4.10;99.90
3564;DHT22;1796;52.388;13.096;2023-11-19T00:30:54;4.10;99.90
3564;DHT22;1796;52.388;13.096;2023-11-19T00:33:21;4.10;99.90
3564;DHT22;1796;52.388;13.096;2023-11-19T00:35:49;4.10;99.90
3564;DHT22;1796;52.388;13.096;2023-11-19T00:38:16;4.20;99.90
3564;DHT22;1796;52.388;13.096;2023-11-19T00:40:43;4.20;99.90
3564;DHT22;1796;52.388;13.096;2023-11-19T00:43:10;4.20;99.90
3564;DHT22;1796;52.388;13.096;2023-11-19T00:45:37;4.20;99.90
3564;DHT22;1796;52.388;13.096;2023-11-19T00:48:05;4.20;99.90
3564;DHT22;1796;52.388;13.096;2023-11-19T00:50:32;4.20;99.90
3564;DHT22;1796;52.388;13.096;2023-11-19T00:53:00;4.20;99.90
3564;DHT22;1796;52.388;13.096;2023-11-19T00:55:29;4.20;99.90
3564;DHT22;1796;52.388;13.096;2023-11-19T00:57:56;4.20;99.90
3564;DHT22;1796;52.388;13.096;2023-11-19T01:00:23;4.30;99.90
3564;DHT22;1796;52.388;13.096;2023-11-19T01:02:52;4.30;99.90
3564;DHT22;1796;52.388;13.096;2023-11-19T01:05:19;4.30;99.90
3564;DHT22;1796;52.388;13.096;2023-11-19T01:07:48;4.40;99.90
3564;DHT22;1796;52.388;13.096;2023-11-19T01:10:17;4.40;99.90
3564;DHT22;1796;52.388;13.096;2023-11-19T01:12:44;4.40;99.90
3564;DHT22;1796;52.388;13.096;2023-11-19T01:15:11;4.30;99.90
3564;DHT22;1796;52.388;13.096;2023-11-19T01:17:38;4.30;99.90
3564;DHT22;1796;52.388;13.096;2023-11-19T01:20:06;4.40;99.90
3564;DHT22;1796;52.388;13.096;2023-11-19T01:22:37;4.40;99.90
3564;DHT22;1796;52.388;13.096;2023-11-19T01:25:05;4.40;99.90
3564;DHT22;1796;52.388;13.096;2023-11-19T01:27:34;4.40;99.90
3564;DHT22;1796;52.388;13.096;2023-11-19T01:30:02;4.30;99.90
3564;DHT22;1796;52.388;13.096;2023-11-19T01:32:29;4.30;99.90
3564;DHT22;1796;52.388;13.096;2023-11-19T01:34:56;4.30;99.90
3564;DHT22;1796;52.388;13.096;2023-11-19T01:37:23;4.30;99.90
3564;DHT22;1796;52.388;13.096;2023-11-19T01:39:50;4.40;99.90
3564;DHT22;1796;52.388;13.096;2023-11-19T01:42:17;4.40;99.90
3564;DHT22;1796;52.388;13.096;2023-11-19T01:44:58;4.40;99.90
3564;DHT22;1796;52.388;13.096;2023-11-19T01:47:25;4.40;99.90
3564;DHT22;1796;52.388;13.096;2023-11-19T01:49:52;4.50;99.90
3564;DHT22;1796;52.388;13.096;2023-11-19T01:52:20;4.50;99.90
3564;DHT22;1796;52.388;13.096;2023-11-19T01:54:47;4.50;99.90
3564;DHT22;1796;52.388;13.096;2023-11-19T01:57:15;4.50;99.90
3564;DHT22;1796;52.388;13.096;2023-11-19T01:59:42;4.40;99.90
3564;DHT22;1796;52.388;13.096;2023-11-19T02:02:11;4.40;99.90
3564;DHT22;1796;52.388;13.096;2023-11-19T02:04:38;4.40;99.90
3564;DHT22;1796;52.388;13.096;2023-11-19T02:07:06;4.40;99.90
3564;DHT22;1796;52.388;13.096;2023-11-19T02:09:34;4.40;99.90
3564;DHT22;1796;52.388;13.096;2023-11-19T02:12:01;4.40;99.90
3564;DHT22;1796;52.388;13.096;2023-11-19T02:14:28;4.40;99.90
3564;DHT22;1796;52.388;13.096;2023-11-19T02:16:56;4.40;99.90
3564;DHT22;1796;52.388;13.096;2023-11-19T02:19:24;4.40;99.90
3564;DHT22;1796;52.388;13.096;2023-11-19T02:21:51;4.30;99.90
3564;DHT22;1796;52.388;13.096;2023-11-19T02:24:20;4.30;99.90
3564;DHT22;1796;52.388;13.096;2023-11-19T02:26:53;4.30;99.90
3564;DHT22;1796;52.388;13.096;2023-11-19T02:29:25;4.30;99.90
3564;DHT22;1796;52.388;13.096;2023-11-19T02:31:52;4.40;99.90
3564;DHT22;1796;52.388;13.096;2023-11-19T02:34:20;4.30;99.90
3564;DHT22;1796;52.388;13.096;2023-11-19T02:36:48;4.40;99.90
3564;DHT22;1796;52.388;13.096;2023-11-19T02:39:15;4.40;99.90
3564;DHT22;1796;52.388;13.096;2023-11-19T02:41:46;4.40;99.90
3564;DHT22;1796;52.388;13.096;2023-11-19T02:44:16;4.40;99.90
3564;DHT22;1796;52.388;13.096;2023-11-19T02:46:44;4.50;99.90
3564;DHT22;1796;52.388;13.096;2023-11-19T02:49:13;4.40;99.90
3564;DHT22;1796;52.388;13.096;2023-11-19T02:51:40;4.40;99.90
3564;DHT22;1796;52.388;13.096;2023-11-19T02:54:07;4.40;99.90
3564;DHT22;1796;52.388;13.096;2023-11-19T02:56:35;4.40;99.90
3564;DHT22;1796;52.388;13.096;2023-11-19T02:59:04;4.40;99.90
3564;DHT22;1796;52.388;13.096;2023-11-19T03:01:40;4.30;99.90
3564;DHT22;1796;52.388;13.096;2023-11-19T03:04:10;4.40;99.90
3564;DHT22;1796;52.388;13.096;2023-11-19T03:06:38;4.40;99.90
3564;DHT22;1796;52.388;13.096;2023-11-19T03:09:05;4.40;99.90
3564;DHT22;1796;52.388;13.096;2023-11-19T03:11:35;4.40;99.90
3564;DHT22;1796;52.388;13.096;2023-11-19T03:14:02;4.40;99.90
3564;DHT22;1796;52.388;13.096;2023-11-19T03:16:29;4.40;99.90
3564;DHT22;1796;52.388;13.096;2023-11-19T03:18:56;4.40;99.90
3564;DHT22;1796;52.388;13.096;2023-11-19T03:21:29;4.40;99.90
3564;DHT22;1796;52.388;13.096;2023-11-19T03:23:56;4.30;99.90
3564;DHT22;1796;52.388;13.096;2023-11-19T03:26:26;4.30;99.90
3564;DHT22;1796;52.388;13.096;2023-11-19T03:28:53;4.30;99.90
3564;DHT22;1796;52.388;13.096;2023-11-19T03:31:20;4.30;99.90
3564;DHT22;1796;52.388;13.096;2023-11-19T03:33:47;4.20;99.90
3564;DHT22;1796;52.388;13.096;2023-11-19T03:36:13;4.20;99.90
3564;DHT22;1796;52.388;13.096;2023-11-19T03:38:42;4.30;99.90
3564;DHT22;1796;52.388;13.096;2023-11-19T03:41:11;4.30;99.90
3564;DHT22;1796;52.388;13.096;2023-11-19T03:43:39;4.30;99.90
3564;DHT22;1796;52.388;13.096;2023-11-19T03:46:16;4.30;99.90
3564;DHT22;1796;52.388;13.096;2023-11-19T03:48:43;4.30;99.90
3564;DHT22;1796;52.388;13.096;2023-11-19T03:51:10;4.20;99.90
3564;DHT22;1796;52.388;13.096;2023-11-19T03:53:42;4.20;99.90
3564;DHT22;1796;52.388;13.096;2023-11-19T03:56:09;4.20;99.90
3564;DHT22;1796;52.388;13.096;2023-11-19T03:58:37;4.20;99.90
3564;DHT22;1796;52.388;13.096;2023-11-19T04:01:04;4.20;99.90
3564;DHT22;1796;52.388;13.096;2023-11-19T04:03:31;4.20;99.90
3564;DHT22;1796;52.388;13.096;2023-11-19T04:05:58;4.30;99.90
3564;DHT22;1796;52.388;13.096;2023-11-19T04:08:25;4.30;99.90
3564;DHT22;1796;52.388;13.096;2023-11-19T04:10:53;4.30;99.90
3564;DHT22;1796;52.388;13.096;2023-11-19T04:13:20;4.20;99.90
3564;DHT22;1796;52.388;13.096;2023-11-19T04:15:49;4.30;99.90
3564;DHT22;1796;52.388;13.096;2023-11-19T04:18:16;4.40;99.90
3564;DHT22;1796;52.388;13.096;2023-11-19T04:20:42;4.40;99.90
3564;DHT22;1796;52.388;13.096;2023-11-19T04:23:09;4.40;99.90
3564;DHT22;1796;52.388;13.096;2023-11-19T04:25:36;4.40;99.90
3564;DHT22;1796;52.388;13.096;2023-11-19T04:28:05;4.40;99.90
3564;DHT22;1796;52.388;13.096;2023-11-19T04:30:32;4.40;99.90
3564;DHT22;1796;52.388;13.096;2023-11-19T04:32:58;4.50;99.90
3564;DHT22;1796;52.388;13.096;2023-11-19T04:35:25;4.50;99.90
3564;DHT22;1796;52.388;13.096;2023-11-19T04:37:52;4.50;99.90
3564;DHT22;1796;52.388;13.096;2023-11-19T04:40:19;4.50;99.90
3564;DHT22;1796;52.388;13.096;2023-11-19T04:42:48;4.50;99.90
3564;DHT22;1796;52.388;13.096;2023-11-19T04:45:16;4.50;99.90
3564;DHT22;1796;52.388;13.096;2023-11-19T04:47:43;4.50;99.90
3564;DHT22;1796;52.388;13.096;2023-11-19T04:50:10;4.50;99.90
3564;DHT22;1796;52.388;13.096;2023-11-19T04:52:37;4.50;99.90
3564;DHT22;1796;52.388;13.096;2023-11-19T04:55:06;4.40;99.90
3564;DHT22;1796;52.388;13.096;2023-11-19T04:57:33;4.40;99.90
3564;DHT22;1796;52.388;13.096;2023-11-19T05:00:00;4.40;99.90
3564;DHT22;1796;52.388;13.096;2023-11-19T05:02:30;4.40;99.90
3564;DHT22;1796;52.388;13.096;2023-11-19T05:04:57;4.40;99.90
3564;DHT22;1796;52.388;13.096;2023-11-19T05:07:24;4.30;99.90
3564;DHT22;1796;52.388;13.096;2023-11-19T05:09:52;4.50;99.90
3564;DHT22;1796;52.388;13.096;2023-11-19T05:12:19;4.50;99.90
3564;DHT22;1796;52.388;13.096;2023-11-19T05:14:45;4.50;99.90
3564;DHT22;1796;52.388;13.096;2023-11-19T05:17:15;4.50;99.90
3564;DHT22;1796;52.388;13.096;2023-11-19T05:19:45;4.50;99.90
3564;DHT22;1796;52.388;13.096;2023-11-19T05:22:12;4.60;99.90
3564;DHT22;1796;52.388;13.096;2023-11-19T05:24:39;4.50;99.90
3564;DHT22;1796;52.388;13.096;2023-11-19T05:27:06;4.50;99.90
3564;DHT22;1796;52.388;13.096;2023-11-19T05:29:33;4.50;99.90
3564;DHT22;1796;52.388;13.096;2023-11-19T05:32:00;4.50;99.90
3564;DHT22;1796;52.388;13.096;2023-11-19T05:34:27;4.50;99.90
3564;DHT22;1796;52.388;13.096;2023-11-19T05:36:55;4.50;99.90
3564;DHT22;1796;52.388;13.096;2023-11-19T05:39:22;4.50;99.90
3564;DHT22;1796;52.388;13.096;2023-11-19T05:41:49;4.50;99.90
3564;DHT22;1796;52.388;13.096;2023-11-19T05:44:17;4.50;99.90
3564;DHT22;1796;52.388;13.096;2023-11-19T05:46:44;4.50;99.90
3564;DHT22;1796;52.388;13.096;2023-11-19T05:49:12;4.50;99.90
3564;DHT22;1796;52.388;13.096;2023-11-19T05:51:39;4.50;99.90
3564;DHT22;1796;52.388;13.096;2023-11-19T05:54:08;4.60;99.90
3564;DHT22;1796;52.388;13.096;2023-11-19T05:56:35;4.60;99.90
3564;DHT22;1796;52.388;13.096;2023-11-19T05:59:02;4.60;99.90
3564;DHT22;1796;52.388;13.096;2023-11-19T06:01:33;4.60;99.90
3564;DHT22;1796;52.388;13.096;2023-11-19T06:04:00;4.60;99.90
3564;DHT22;1796;52.388;13.096;2023-11-19T06:06:28;4.60;99.90
3564;DHT22;1796;52.388;13.096;2023-11-19T06:08:55;4.60;99.90
3564;DHT22;1796;52.388;13.096;2023-11-19T06:11:23;4.70;99.90
3564;DHT22;1796;52.388;13.096;2023-11-19T06:13:52;4.60;99.90
3564;DHT22;1796;52.388;13.096;2023-11-19T06:16:19;4.60;99.90
3564;DHT22;1796;52.388;13.096;2023-11-19T06:18:46;4.60;99.90
3564;DHT22;1796;52.388;13.096;2023-11-19T06:21:13;4.70;99.90
3564;DHT22;1796;52.388;13.096;2023-11-19T06:23:40;4.70;99.90
3564;DHT22;1796;52.388;13.096;2023-11-19T06:26:07;4.70;99.90
3564;DHT22;1796;52.388;13.096;2023-11-19T06:28:36;4.70;99.90
3564;DHT22;1796;52.388;13.096;2023-11-19T06:31:04;4.70;99.90
3564;DHT22;1796;52.388;13.096;2023-11-19T06:33:31;4.70;99.90
3564;DHT22;1796;52.388;13.096;2023-11-19T06:35:59;4.70;99.90
3564;DHT22;1796;52.388;13.096;2023-11-19T06:38:26;4.80;99.90
3564;DHT22;1796;52.388;13.096;2023-11-19T06:40:53;4.80;99.90
3564;DHT22;1796;52.388;13.096;2023-11-19T06:43:20;4.80;99.90
3564;DHT22;1796;52.388;13.096;2023-11-19T06:45:48;4.80;99.90
3564;DHT22;1796;52.388;13.096;2023-11-19T06:48:18;4.90;99.90
3564;DHT22;1796;52.388;13.096;2023-11-19T06:50:44;5.00;99.90
3564;DHT22;1796;52.388;13.096;2023-11-19T06:53:14;4.90;99.90
3564;DHT22;1796;52.388;13.096;2023-11-19T06:55:41;4.90;99.90
3564;DHT22;1796;52.388;13.096;2023-11-19T06:58:08;4.90;99.90
3564;DHT22;1796;52.388;13.096;2023-11-19T07:00:34;5.20;99.90
3564;DHT22;1796;52.388;13.096;2023-11-19T07:03:03;5.00;99.90
3564;DHT22;1796;52.388;13.096;2023-11-19T07:05:31;5.10;99.90
3564;DHT22;1796;52.388;13.096;2023-11-19T07:07:59;5.00;99.90
3564;DHT22;1796;52.388;13.096;2023-11-19T07:10:26;5.00;99.90
3564;DHT22;1796;52.388;13.096;2023-11-19T07:12:55;5.00;99.90
3564;DHT22;1796;52.388;13.096;2023-11-19T07:15:21;5.10;99.90
3564;DHT22;1796;52.388;13.096;2023-11-19T07:17:48;5.10;99.90
3564;DHT22;1796;52.388;13.096;2023-11-19T07:20:17;5.10;99.90
3564;DHT22;1796;52.388;13.096;2023-11-19T07:22:44;5.10;99.90
3564;DHT22;1796;52.388;13.096;2023-11-19T07:25:12;5.20;99.90
3564;DHT22;1796;52.388;13.096;2023-11-19T07:27:39;5.20;99.90
3564;DHT22;1796;52.388;13.096;2023-11-19T07:30:09;5.30;99.90
3564;DHT22;1796;52.388;13.096;2023-11-19T07:32:36;5.30;99.90
3564;DHT22;1796;52.388;13.096;2023-11-19T07:35:07;5.40;99.90
3564;DHT22;1796;52.388;13.096;2023-11-19T07:37:36;5.40;99.90
3564;DHT22;1796;52.388;13.096;2023-11-19T07:40:04;5.50;99.90
3564;DHT22;1796;52.388;13.096;2023-11-19T07:42:31;5.50;99.90
3564;DHT22;1796;52.388;13.096;2023-11-19T07:44:58;5.50;99.90
3564;DHT22;1796;52.388;13.096;2023-11-19T07:47:24;5.60;99.90
3564;DHT22;1796;52.388;13.096;2023-11-19T07:49:51;5.60;99.90
3564;DHT22;1796;52.388;13.096;2023-11-19T07:52:18;5.60;99.90
3564;DHT22;1796;52.388;13.096;2023-11-19T07:54:46;5.70;99.90
3564;DHT22;1796;52.388;13.096;2023-11-19T07:57:13;5.70;99.90
3564;DHT22;1796;52.388;13.096;2023-11-19T07:59:41;5.80;99.90
3564;DHT22;1796;52.388;13.096;2023-11-19T08:02:08;5.80;99.90
3564;DHT22;1796;52.388;13.096;2023-11-19T08:04:34;5.90;99.90
3564;DHT22;1796;52.388;13.096;2023-11-19T08:07:05;5.90;99.90
3564;DHT22;1796;52.388;13.096;2023-11-19T08:09:35;5.90;99.90
3564;DHT22;1796;52.388;13.096;2023-11-19T08:12:05;6.10;99.90
3564;DHT22;1796;52.388;13.096;2023-11-19T08:14:34;6.20;99.90
3564;DHT22;1796;52.388;13.096;2023-11-19T08:17:03;6.20;99.90
3564;DHT22;1796;52.388;13.096;2023-11-19T08:19:30;6.30;99.90
3564;DHT22;1796;52.388;13.096;2023-11-19T08:21:59;6.40;99.90
3564;DHT22;1796;52.388;13.096;2023-11-19T08:24:26;6.40;99.90
3564;DHT22;1796;52.388;13.096;2023-11-19T08:26:53;6.50;99.90
3564;DHT22;1796;52.388;13.096;2023-11-19T08:29:22;6.50;99.90
3564;DHT22;1796;52.388;13.096;2023-11-19T08:31:48;6.60;99.90
3564;DHT22;1796;52.388;13.096;2023-11-19T08:34:15;6.70;99.90
3564;DHT22;1796;52.388;13.096;2023-11-19T08:36:42;6.80;99.90
3564;DHT22;1796;52.388;13.096;2023-11-19T08:39:09;6.90;99.90
3564;DHT22;1796;52.388;13.096;2023-11-19T08:41:36;7.00;99.90
3564;DHT22;1796;52.388;13.096;2023-11-19T08:44:05;7.00;99.90
3564;DHT22;1796;52.388;13.096;2023-11-19T08:46:33;7.00;99.90
3564;DHT22;1796;52.388;13.096;2023-11-19T08:49:00;7.10;99.90
3564;DHT22;1796;52.388;13.096;2023-11-19T08:51:28;7.10;99.90
3564;DHT22;1796;52.388;13.096;2023-11-19T08:53:55;7.10;99.90
3564;DHT22;1796;52.388;13.096;2023-11-19T08:56:23;7.10;99.90
3564;DHT22;1796;52.388;13.096;2023-11-19T08:58:50;7.20;99.90
3564;DHT22;1796;52.388;13.096;2023-11-19T09:01:16;7.30;99.90
3564;DHT22;1796;52.388;13.096;2023-11-19T09:03:45;7.30;99.90
3564;DHT22;1796;52.388;13.096;2023-11-19T09:06:12;7.50;99.90
3564;DHT22;1796;52.388;13.096;2023-11-19T09:08:39;7.50;99.90
3564;DHT22;1796;52.388;13.096;2023-11-19T09:11:09;7.50;99.90
3564;DHT22;1796;52.388;13.096;2023-11-19T09:13:36;7.50;99.90
3564;DHT22;1796;52.388;13.096;2023-11-19T09:16:03;7.50;99.90
3564;DHT22;1796;52.388;13.096;2023-11-19T09:18:30;7.50;99.90
3564;DHT22;1796;52.388;13.096;2023-11-19T09:20:59;7.60;99.90
3564;DHT22;1796;52.388;13.096;2023-11-19T09:23:26;7.70;99.90
3564;DHT22;1796;52.388;13.096;2023-11-19T09:25:54;7.80;99.90
3564;DHT22;1796;52.388;13.096;2023-11-19T09:28:21;8.00;99.90
3564;DHT22;1796;52.388;13.096;2023-11-19T09:30:48;8.10;99.90
3564;DHT22;1796;52.388;13.096;2023-11-19T09:33:15;8.30;99.90
3564;DHT22;1796;52.388;13.096;2023-11-19T09:35:42;8.50;99.90
3564;DHT22;1796;52.388;13.096;2023-11-19T09:38:10;8.70;99.90
3564;DHT22;1796;52.388;13.096;2023-11-19T09:40:38;8.70;99.90
3564;DHT22;1796;52.388;13.096;2023-11-19T09:43:05;8.70;99.90
3564;DHT22;1796;52.388;13.096;2023-11-19T09:45:38;8.70;99.90
3564;DHT22;1796;52.388;13.096;2023-11-19T09:48:09;8.80;99.90
3564;DHT22;1796;52.388;13.096;2023-11-19T09:50:36;9.00;99.90
3564;DHT22;1796;52.388;13.096;2023-11-19T09:53:02;9.20;99.90
3564;DHT22;1796;52.388;13.096;2023-11-19T09:55:31;9.30;99.90
3564;DHT22;1796;52.388;13.096;2023-11-19T09:57:58;9.50;99.90
3564;DHT22;1796;52.388;13.096;2023-11-19T10:00:27;9.60;99.90
3564;DHT22;1796;52.388;13.096;2023-11-19T10:02:55;9.60;99.90
3564;DHT22;1796;52.388;13.096;2023-11-19T10:05:24;9.70;99.90
3564;DHT22;1796;52.388;13.096;2023-11-19T10:07:51;9.70;99.90
3564;DHT22;1796;52.388;13.096;2023-11-19T10:10:18;9.90;99.90
3564;DHT22;1796;52.388;13.096;2023-11-19T10:12:47;9.90;99.90
3564;DHT22;1796;52.388;13.096;2023-11-19T10:15:20;10.10;99.90
3564;DHT22;1796;52.388;13.096;2023-11-19T10:17:47;10.20;99.90
3564;DHT22;1796;52.388;13.096;2023-11-19T10:20:14;10.10;99.90
3564;DHT22;1796;52.388;13.096;2023-11-19T10:22:40;10.20;99.90
3564;DHT22;1796;52.388;13.096;2023-11-19T10:25:21;10.20;99.90
3564;DHT22;1796;52.388;13.096;2023-11-19T10:27:50;10.10;99.90
3564;DHT22;1796;52.388;13.096;2023-11-19T10:30:18;10.10;99.90
3564;DHT22;1796;52.388;13.096;2023-11-19T10:32:46;10.10;99.90
3564;DHT22;1796;52.388;13.096;2023-11-19T10:35:28;10.40;99.90
3564;DHT22;1796;52.388;13.096;2023-11-19T10:37:55;10.30;99.90
3564;DHT22;1796;52.388;13.096;2023-11-19T10:40:22;10.40;99.90
3564;DHT22;1796;52.388;13.096;2023-11-19T10:43:02;10.40;99.90
3564;DHT22;1796;52.388;13.096;2023-11-19T10:45:29;10.40;99.90
3564;DHT22;1796;52.388;13.096;2023-11-19T10:47:56;10.50;99.90
3564;DHT22;1796;52.388;13.096;2023-11-19T10:50:23;10.60;99.90
3564;DHT22;1796;52.388;13.096;2023-11-19T10:52:54;10.60;99.90
3564;DHT22;1796;52.388;13.096;2023-11-19T10:55:26;10.60;99.90
3564;DHT22;1796;52.388;13.096;2023-11-19T10:58:00;10.60;99.90
3564;DHT22;1796;52.388;13.096;2023-11-19T11:00:29;10.60;99.90
3564;DHT22;1796;52.388;13.096;2023-11-19T11:03:01;10.60;99.90
3564;DHT22;1796;52.388;13.096;2023-11-19T11:05:30;10.60;99.90
3564;DHT22;1796;52.388;13.096;2023-11-19T11:08:00;10.60;99.90
3564;DHT22;1796;52.388;13.096;2023-11-19T11:10:28;10.60;99.90
3564;DHT22;1796;52.388;13.096;2023-11-19T11:13:03;10.60;99.90
3564;DHT22;1796;52.388;13.096;2023-11-19T11:15:31;10.70;99.90
3564;DHT22;1796;52.388;13.096;2023-11-19T11:18:00;10.70;99.90
3564;DHT22;1796;52.388;13.096;2023-11-19T11:20:29;10.70;99.90
3564;DHT22;1796;52.388;13.096;2023-11-19T11:26:00;10.70;99.90
3564;DHT22;1796;52.388;13.096;2023-11-19T11:28:37;10.70;99.90
3564;DHT22;1796;52.388;13.096;2023-11-19T11:31:21;10.60;99.90
3564;DHT22;1796;52.388;13.096;2023-11-19T11:34:24;10.60;99.90
3564;DHT22;1796;52.388;13.096;2023-11-19T11:37:03;10.60;99.90
3564;DHT22;1796;52.388;13.096;2023-11-19T11:39:33;10.70;99.90
3564;DHT22;1796;52.388;13.096;2023-11-19T11:42:31;10.70;99.90
3564;DHT22;1796;52.388;13.096;2023-11-19T11:45:06;10.90;99.90
3564;DHT22;1796;52.388;13.096;2023-11-19T11:50:57;11.20;99.90
3564;DHT22;1796;52.388;13.096;2023-11-19T11:53:25;11.30;99.90
3564;DHT22;1796;52.388;13.096;2023-11-19T11:55:54;11.40;99.90
3564;DHT22;1796;52.388;13.096;2023-11-19T11:58:25;11.50;99.90
3564;DHT22;1796;52.388;13.096;2023-11-19T12:00:53;11.50;99.90
3564;DHT22;1796;52.388;13.096;2023-11-19T12:03:23;11.60;99.90
3564;DHT22;1796;52.388;13.096;2023-11-19T12:05:50;11.70;99.90
3564;DHT22;1796;52.388;13.096;2023-11-19T12:08:19;11.60;99.90
3564;DHT22;1796;52.388;13.096;2023-11-19T12:10:48;11.70;99.90
3564;DHT22;1796;52.388;13.096;2023-11-19T12:13:15;11.70;99.90
3564;DHT22;1796;52.388;13.096;2023-11-19T12:16:10;11.70;99.90
3564;DHT22;1796;52.388;13.096;2023-11-19T12:18:42;11.80;99.90
3564;DHT22;1796;52.388;13.096;2023-11-19T12:21:11;11.80;99.90
3564;DHT22;1796;52.388;13.096;2023-11-19T12:23:54;11.80;99.90
3564;DHT22;1796;52.388;13.096;2023-11-19T12:26:33;11.70;99.90
3564;DHT22;1796;52.388;13.096;2023-11-19T12:29:00;11.50;99.90
3564;DHT22;1796;52.388;13.096;2023-11-19T12:31:30;11.40;99.90
3564;DHT22;1796;52.388;13.096;2023-11-19T12:33:59;11.30;99.90
3564;DHT22;1796;52.388;13.096;2023-11-19T12:36:26;11.30;99.90
3564;DHT22;1796;52.388;13.096;2023-11-19T12:38:53;11.30;99.90
3564;DHT22;1796;52.388;13.096;2023-11-19T12:41:20;11.20;99.90
3564;DHT22;1796;52.388;13.096;2023-11-19T12:43:49;11.20;99.90
3564;DHT22;1796;52.388;13.096;2023-11-19T12:46:19;11.20;99.90
3564;DHT22;1796;52.388;13.096;2023-11-19T12:48:56;11.10;99.90
3564;DHT22;1796;52.388;13.096;2023-11-19T12:51:30;11.10;99.90
3564;DHT22;1796;52.388;13.096;2023-11-19T12:54:00;11.10;99.90
3564;DHT22;1796;52.388;13.096;2023-11-19T12:56:27;11.10;99.90
3564;DHT22;1796;52.388;13.096;2023-11-19T12:59:01;11.00;99.90
3564;DHT22;1796;52.388;13.096;2023-11-19T13:01:37;10.90;99.90
3564;DHT22;1796;52.388;13.096;2023-11-19T13:04:18;10.90;99.90
3564;DHT22;1796;52.388;13.096;2023-11-19T13:06:46;10.90;99.90
3564;DHT22;1796;52.388;13.096;2023-11-19T13:09:22;11.00;99.90
3564;DHT22;1796;52.388;13.096;2023-11-19T13:11:49;11.10;99.90
3564;DHT22;1796;52.388;13.096;2023-11-19T13:14:16;11.10;99.90
3564;DHT22;1796;52.388;13.096;2023-11-19T13:16:43;11.10;99.90
3564;DHT22;1796;52.388;13.096;2023-11-19T13:19:11;11.00;99.90
3564;DHT22;1796;52.388;13.096;2023-11-19T13:21:39;11.00;99.90
3564;DHT22;1796;52.388;13.096;2023-11-19T13:24:06;10.90;99.90
3564;DHT22;1796;52.388;13.096;2023-11-19T13:26:35;10.90;99.90
3564;DHT22;1796;52.388;13.096;2023-11-19T13:29:04;11.00;99.90
3564;DHT22;1796;52.388;13.096;2023-11-19T13:31:36;11.00;99.90
3564;DHT22;1796;52.388;13.096;2023-11-19T13:34:04;11.00;99.90
3564;DHT22;1796;52.388;13.096;2023-11-19T13:36:32;11.10;99.90
3564;DHT22;1796;52.388;13.096;2023-11-19T13:39:01;11.10;99.90
3564;DHT22;1796;52.388;13.096;2023-11-19T13:41:34;11.10;99.90
3564;DHT22;1796;52.388;13.096;2023-11-19T13:44:02;11.00;99.90
3564;DHT22;1796;52.388;13.096;2023-11-19T13:46:36;10.90;99.90
3564;DHT22;1796;52.388;13.096;2023-11-19T13:49:05;10.90;99.90
3564;DHT22;1796;52.388;13.096;2023-11-19T13:51:38;10.80;99.90
3564;DHT22;1796;52.388;13.096;2023-11-19T13:54:06;10.90;99.90
3564;DHT22;1796;52.388;13.096;2023-11-19T13:56:33;10.80;99.90
3564;DHT22;1796;52.388;13.096;2023-11-19T13:59:00;10.80;99.90
3564;DHT22;1796;52.388;13.096;2023-11-19T14:01:28;10.80;99.90
3564;DHT22;1796;52.388;13.096;2023-11-19T14:03:56;10.90;99.90
3564;DHT22;1796;52.388;13.096;2023-11-19T14:06:23;10.90;99.90
3564;DHT22;1796;52.388;13.096;2023-11-19T14:08:50;10.90;99.90
3564;DHT22;1796;52.388;13.096;2023-11-19T14:11:21;10.90;99.90
3564;DHT22;1796;52.388;13.096;2023-11-19T14:13:47;10.90;99.90
3564;DHT22;1796;52.388;13.096;2023-11-19T14:16:18;10.90;99.90
3564;DHT22;1796;52.388;13.096;2023-11-19T14:18:51;10.80;99.90
3564;DHT22;1796;52.388;13.096;2023-11-19T14:21:20;10.90;99.90
3564;DHT22;1796;52.388;13.096;2023-11-19T14:23:47;10.90;99.90
3564;DHT22;1796;52.388;13.096;2023-11-19T14:26:14;10.90;99.90
3564;DHT22;1796;52.388;13.096;2023-11-19T14:28:47;10.90;99.90
3564;DHT22;1796;52.388;13.096;2023-11-19T14:31:16;10.80;99.90
3564;DHT22;1796;52.388;13.096;2023-11-19T14:33:43;10.70;99.90
3564;DHT22;1796;52.388;13.096;2023-11-19T14:36:10;10.60;99.90
3564;DHT22;1796;52.388;13.096;2023-11-19T14:38:49;10.50;99.90
3564;DHT22;1796;52.388;13.096;2023-11-19T14:41:47;10.40;99.90
3564;DHT22;1796;52.388;13.096;2023-11-19T14:44:15;10.40;99.90
3564;DHT22;1796;52.388;13.096;2023-11-19T14:46:44;10.40;99.90
3564;DHT22;1796;52.388;13.096;2023-11-19T14:49:12;10.30;99.90
3564;DHT22;1796;52.388;13.096;2023-11-19T14:51:40;10.30;99.90
3564;DHT22;1796;52.388;13.096;2023-11-19T14:54:13;10.30;99.90
3564;DHT22;1796;52.388;13.096;2023-11-19T14:56:44;10.20;99.90
3564;DHT22;1796;52.388;13.096;2023-11-19T14:59:16;10.20;99.90
3564;DHT22;1796;52.388;13.096;2023-11-19T15:01:45;10.30;99.90
3564;DHT22;1796;52.388;13.096;2023-11-19T15:04:20;10.30;99.90
3564;DHT22;1796;52.388;13.096;2023-11-19T15:06:50;10.30;99.90
3564;DHT22;1796;52.388;13.096;2023-11-19T15:09:17;10.30;99.90
3564;DHT22;1796;52.388;13.096;2023-11-19T15:11:47;10.30;99.90
3564;DHT22;1796;52.388;13.096;2023-11-19T15:14:16;10.20;99.90
3564;DHT22;1796;52.388;13.096;2023-11-19T15:16:45;10.30;99.90
3564;DHT22;1796;52.388;13.096;2023-11-19T15:19:20;10.30;99.90
3564;DHT22;1796;52.388;13.096;2023-11-19T15:21:47;10.30;99.90
3564;DHT22;1796;52.388;13.096;2023-11-19T15:24:14;10.30;99.90
3564;DHT22;1796;52.388;13.096;2023-11-19T15:26:41;10.30;99.90
3564;DHT22;1796;52.388;13.096;2023-11-19T15:29:08;10.30;99.90
3564;DHT22;1796;52.388;13.096;2023-11-19T15:31:37;10.30;99.90
3564;DHT22;1796;52.388;13.096;2023-11-19T15:34:04;10.30;99.90
3564;DHT22;1796;52.388;13.096;2023-11-19T15:36:32;10.30;99.90
3564;DHT22;1796;52.388;13.096;2023-11-19T15:39:01;10.30;99.90
3564;DHT22;1796;52.388;13.096;2023-11-19T15:41:30;10.30;99.90
3564;DHT22;1796;52.388;13.096;2023-11-19T15:43:57;10.30;99.90
3564;DHT22;1796;52.388;13.096;2023-11-19T15:46:24;10.30;99.90
3564;DHT22;1796;52.388;13.096;2023-11-19T15:48:52;10.30;99.90
3564;DHT22;1796;52.388;13.096;2023-11-19T15:51:19;10.30;99.90
3564;DHT22;1796;52.388;13.096;2023-11-19T15:53:46;10.30;99.90
3564;DHT22;1796;52.388;13.096;2023-11-19T15:56:14;10.40;99.90
3564;DHT22;1796;52.388;13.096;2023-11-19T15:58:41;10.30;99.90
3564;DHT22;1796;52.388;13.096;2023-11-19T16:01:08;10.30;99.90
3564;DHT22;1796;52.388;13.096;2023-11-19T16:03:35;10.20;99.90
3564;DHT22;1796;52.388;13.096;2023-11-19T16:06:04;10.20;99.90
3564;DHT22;1796;52.388;13.096;2023-11-19T16:08:32;10.20;99.90
3564;DHT22;1796;52.388;13.096;2023-11-19T16:11:06;10.20;99.90